الصفحة الرئيسية
METAR-TAF:

METAR-TAF

مطار :

قاعدة جوية عسكرية Alcantarilla

مرسية, إسبانيا

دائرة عرض: 37-57N, خط طول: 001-14W, ارتفاع: 75 متر

مراقبة الطقس الحالي

تاريخ ووقت الإصدار 1ساعة و 40 دقيقة قبل الساعة 08:00UTC
ريح 3 عقدةمن اتجاهات متغيرة
درجة الحرارة 26°درجة مئوية
الرطوبة 65%
ضغط 1021 hPa
الرؤية 10 كم أو أكثر
غيوم قليلة على ارتفاع 2000 قدم

METAR: LERI 040800Z VRB03KT 9999 FEW020 26/19 Q1021 NOSIG

زمن: 11:40 (09:40 UTC)

توقعات

تاريخ ووقت الإصدار 4ساعات و 40 دقيقة قبل الساعة 05:00UTC
التوقعات صالحة من04 الساعة 06 UTC إلى 04 الساعة 15 UTC
ريح 2 عقدةمن اتجاهات متغيرة
الرؤية 10 كم أو أكثر
غيوم قليلة على ارتفاع 2000 قدم
أصبح
من 04 الساعة 12 UTC إلى 04 الساعة 14 UTC
ريح 10 عقدة من الجنوب الشرقي

TAF: LERI 040500Z 0406/0415 VRB02KT 9999 FEW020 BECMG 0412/0414 13010KT

أرصاد الطقس والتوقعات من أكثر من 4000 مطار (تقارير الطقس للمطار METAR والتنبؤ بالطقس بالمطارTAF).

المحطات المتاحة هي النقط الصفراء والحمراء على الخريطة.

حرك المؤشر فوق النقطة لمعرفة اسم المحطة.

ثم انقر لمعرفة أرصاد وتوقعات الطقس.

لتغيير الخارطة: اضغط على الأزرار الخضراء مع رمز الصليب الأسود للتكبير. على الزر الأخضر مع شرطة للتصغير، أو على الأسهم الخضراء للخرائط المجاورة.


METAR-TAF: